sensor_id;sensor_type;location;lat;lon;timestamp;P1;P4;P2;P0;N10;N4;N25;N1;N05;TS
43196;SPS30;28816;49.852;18.282;2023-07-31T00:02:43;0.890000;;0.880000;0.850000;;;;;;
43196;SPS30;28816;49.852;18.282;2023-07-31T00:07:45;0.890000;;0.900000;0.840000;;;;;;
43196;SPS30;28816;49.852;18.282;2023-07-31T00:12:48;1.160000;;1.130000;1.110000;;;;;;
43196;SPS30;28816;49.852;18.282;2023-07-31T00:17:50;1.050000;;1.050000;0.990000;;;;;;
43196;SPS30;28816;49.852;18.282;2023-07-31T00:22:52;1.170000;;1.150000;1.110000;;;;;;
43196;SPS30;28816;49.852;18.282;2023-07-31T00:27:54;0.970000;;0.980000;0.900000;;;;;;
43196;SPS30;28816;49.852;18.282;2023-07-31T00:32:57;1.380000;;1.380000;1.290000;;;;;;
43196;SPS30;28816;49.852;18.282;2023-07-31T00:37:59;1.010000;;0.990000;0.960000;;;;;;
43196;SPS30;28816;49.852;18.282;2023-07-31T00:43:01;1.210000;;1.170000;1.140000;;;;;;
43196;SPS30;28816;49.852;18.282;2023-07-31T00:48:04;1.220000;;1.210000;1.130000;;;;;;
43196;SPS30;28816;49.852;18.282;2023-07-31T00:53:06;1.590000;;1.570000;1.500000;;;;;;
43196;SPS30;28816;49.852;18.282;2023-07-31T00:58:08;1.350000;;1.340000;1.280000;;;;;;
43196;SPS30;28816;49.852;18.282;2023-07-31T01:03:10;1.460000;;1.460000;1.360000;;;;;;
43196;SPS30;28816;49.852;18.282;2023-07-31T01:08:12;2.650000;;2.580000;2.560000;;;;;;
43196;SPS30;28816;49.852;18.282;2023-07-31T01:13:18;3.180000;;3.140000;3.050000;;;;;;
43196;SPS30;28816;49.852;18.282;2023-07-31T01:18:21;3.140000;;3.110000;3.010000;;;;;;
43196;SPS30;28816;49.852;18.282;2023-07-31T01:23:23;3.540000;;3.500000;3.360000;;;;;;
43196;SPS30;28816;49.852;18.282;2023-07-31T01:28:34;2.020000;;2.010000;1.930000;;;;;;
43196;SPS30;28816;49.852;18.282;2023-07-31T01:33:43;1.730000;;1.730000;1.620000;;;;;;
43196;SPS30;28816;49.852;18.282;2023-07-31T01:38:46;1.860000;;1.840000;1.770000;;;;;;
43196;SPS30;28816;49.852;18.282;2023-07-31T01:43:49;1.460000;;1.470000;1.380000;;;;;;
43196;SPS30;28816;49.852;18.282;2023-07-31T01:48:51;1.470000;;1.460000;1.370000;;;;;;
43196;SPS30;28816;49.852;18.282;2023-07-31T01:53:54;1.150000;;1.160000;1.090000;;;;;;
43196;SPS30;28816;49.852;18.282;2023-07-31T01:58:57;1.540000;;1.510000;1.500000;;;;;;
43196;SPS30;28816;49.852;18.282;2023-07-31T02:03:59;1.290000;;1.300000;1.200000;;;;;;
43196;SPS30;28816;49.852;18.282;2023-07-31T02:09:01;1.420000;;1.430000;1.340000;;;;;;
43196;SPS30;28816;49.852;18.282;2023-07-31T02:14:04;1.800000;;1.800000;1.690000;;;;;;
43196;SPS30;28816;49.852;18.282;2023-07-31T02:19:06;1.260000;;1.260000;1.170000;;;;;;
43196;SPS30;28816;49.852;18.282;2023-07-31T02:24:08;1.510000;;1.490000;1.450000;;;;;;
43196;SPS30;28816;49.852;18.282;2023-07-31T02:29:10;1.450000;;1.470000;1.340000;;;;;;
43196;SPS30;28816;49.852;18.282;2023-07-31T02:34:12;1.880000;;1.890000;1.750000;;;;;;
43196;SPS30;28816;49.852;18.282;2023-07-31T02:39:14;2.320000;;2.320000;2.180000;;;;;;
43196;SPS30;28816;49.852;18.282;2023-07-31T02:44:16;2.450000;;2.450000;2.320000;;;;;;
43196;SPS30;28816;49.852;18.282;2023-07-31T02:49:19;2.950000;;3.000000;2.740000;;;;;;
43196;SPS30;28816;49.852;18.282;2023-07-31T02:54:21;2.330000;;2.340000;2.190000;;;;;;
43196;SPS30;28816;49.852;18.282;2023-07-31T02:59:23;2.030000;;2.060000;1.880000;;;;;;
43196;SPS30;28816;49.852;18.282;2023-07-31T03:04:27;1.870000;;1.910000;1.740000;;;;;;
43196;SPS30;28816;49.852;18.282;2023-07-31T03:09:29;2.070000;;2.050000;2.000000;;;;;;
43196;SPS30;28816;49.852;18.282;2023-07-31T03:14:31;2.250000;;2.230000;2.120000;;;;;;
43196;SPS30;28816;49.852;18.282;2023-07-31T03:19:34;1.750000;;1.750000;1.670000;;;;;;
43196;SPS30;28816;49.852;18.282;2023-07-31T03:24:36;1.980000;;1.970000;1.880000;;;;;;
43196;SPS30;28816;49.852;18.282;2023-07-31T03:29:38;2.090000;;2.090000;1.980000;;;;;;
43196;SPS30;28816;49.852;18.282;2023-07-31T03:34:40;2.000000;;2.010000;1.850000;;;;;;
43196;SPS30;28816;49.852;18.282;2023-07-31T03:39:42;1.890000;;1.860000;1.770000;;;;;;
43196;SPS30;28816;49.852;18.282;2023-07-31T03:44:44;1.700000;;1.700000;1.620000;;;;;;
43196;SPS30;28816;49.852;18.282;2023-07-31T03:49:47;1.830000;;1.820000;1.740000;;;;;;
43196;SPS30;28816;49.852;18.282;2023-07-31T03:54:49;2.280000;;2.290000;2.140000;;;;;;
43196;SPS30;28816;49.852;18.282;2023-07-31T03:59:51;2.090000;;2.120000;1.970000;;;;;;
43196;SPS30;28816;49.852;18.282;2023-07-31T04:04:53;2.550000;;2.530000;2.410000;;;;;;
43196;SPS30;28816;49.852;18.282;2023-07-31T04:09:56;1.910000;;1.910000;1.800000;;;;;;
43196;SPS30;28816;49.852;18.282;2023-07-31T04:14:58;2.100000;;2.100000;1.990000;;;;;;
43196;SPS30;28816;49.852;18.282;2023-07-31T04:20:00;1.850000;;1.830000;1.770000;;;;;;
43196;SPS30;28816;49.852;18.282;2023-07-31T04:25:02;1.600000;;1.640000;1.500000;;;;;;
43196;SPS30;28816;49.852;18.282;2023-07-31T04:30:04;2.260000;;2.250000;2.110000;;;;;;
43196;SPS30;28816;49.852;18.282;2023-07-31T04:35:06;3.370000;;3.370000;3.150000;;;;;;
43196;SPS30;28816;49.852;18.282;2023-07-31T04:40:09;2.730000;;2.690000;2.620000;;;;;;
43196;SPS30;28816;49.852;18.282;2023-07-31T04:45:11;2.090000;;2.050000;1.990000;;;;;;
43196;SPS30;28816;49.852;18.282;2023-07-31T04:50:13;2.860000;;2.880000;2.660000;;;;;;
43196;SPS30;28816;49.852;18.282;2023-07-31T04:55:15;2.550000;;2.580000;2.390000;;;;;;
43196;SPS30;28816;49.852;18.282;2023-07-31T05:00:17;2.280000;;2.270000;2.160000;;;;;;
43196;SPS30;28816;49.852;18.282;2023-07-31T05:05:19;2.410000;;2.420000;2.260000;;;;;;
43196;SPS30;28816;49.852;18.282;2023-07-31T05:10:20;2.330000;;2.300000;2.220000;;;;;;
43196;SPS30;28816;49.852;18.282;2023-07-31T05:15:23;2.510000;;2.540000;2.350000;;;;;;
43196;SPS30;28816;49.852;18.282;2023-07-31T05:20:26;2.340000;;2.370000;2.190000;;;;;;
43196;SPS30;28816;49.852;18.282;2023-07-31T05:25:28;2.140000;;2.080000;2.070000;;;;;;
43196;SPS30;28816;49.852;18.282;2023-07-31T05:30:29;2.800000;;2.840000;2.630000;;;;;;
43196;SPS30;28816;49.852;18.282;2023-07-31T05:35:31;2.430000;;2.420000;2.290000;;;;;;
43196;SPS30;28816;49.852;18.282;2023-07-31T05:40:33;1.910000;;1.890000;1.830000;;;;;;
43196;SPS30;28816;49.852;18.282;2023-07-31T05:45:36;1.890000;;1.910000;1.800000;;;;;;
43196;SPS30;28816;49.852;18.282;2023-07-31T05:50:38;2.580000;;2.600000;2.420000;;;;;;
43196;SPS30;28816;49.852;18.282;2023-07-31T05:55:40;2.670000;;2.660000;2.510000;;;;;;
43196;SPS30;28816;49.852;18.282;2023-07-31T06:00:42;2.310000;;2.340000;2.140000;;;;;;
43196;SPS30;28816;49.852;18.282;2023-07-31T06:05:44;2.640000;;2.620000;2.490000;;;;;;
43196;SPS30;28816;49.852;18.282;2023-07-31T06:10:46;2.770000;;2.750000;2.620000;;;;;;
43196;SPS30;28816;49.852;18.282;2023-07-31T06:15:48;2.640000;;2.570000;2.540000;;;;;;
43196;SPS30;28816;49.852;18.282;2023-07-31T06:20:50;2.210000;;2.190000;2.090000;;;;;;
43196;SPS30;28816;49.852;18.282;2023-07-31T06:25:52;1.690000;;1.700000;1.610000;;;;;;
43196;SPS30;28816;49.852;18.282;2023-07-31T06:30:54;2.120000;;2.100000;2.010000;;;;;;
43196;SPS30;28816;49.852;18.282;2023-07-31T06:35:57;1.990000;;2.020000;1.850000;;;;;;
43196;SPS30;28816;49.852;18.282;2023-07-31T06:40:59;2.330000;;2.330000;2.220000;;;;;;
43196;SPS30;28816;49.852;18.282;2023-07-31T06:46:01;2.200000;;2.210000;2.070000;;;;;;
43196;SPS30;28816;49.852;18.282;2023-07-31T06:51:04;1.940000;;1.960000;1.820000;;;;;;
43196;SPS30;28816;49.852;18.282;2023-07-31T06:56:06;1.970000;;1.970000;1.870000;;;;;;
43196;SPS30;28816;49.852;18.282;2023-07-31T07:01:09;2.260000;;2.280000;2.120000;;;;;;
43196;SPS30;28816;49.852;18.282;2023-07-31T07:06:10;1.870000;;1.850000;1.790000;;;;;;
43196;SPS30;28816;49.852;18.282;2023-07-31T07:11:12;1.810000;;1.800000;1.710000;;;;;;
43196;SPS30;28816;49.852;18.282;2023-07-31T07:16:14;1.620000;;1.640000;1.530000;;;;;;
43196;SPS30;28816;49.852;18.282;2023-07-31T07:21:16;1.530000;;1.500000;1.480000;;;;;;
43196;SPS30;28816;49.852;18.282;2023-07-31T07:26:18;2.310000;;2.290000;2.130000;;;;;;
43196;SPS30;28816;49.852;18.282;2023-07-31T07:31:20;4.210000;;3.630000;2.950000;;;;;;
43196;SPS30;28816;49.852;18.282;2023-07-31T07:36:22;2.220000;;2.030000;1.770000;;;;;;
43196;SPS30;28816;49.852;18.282;2023-07-31T07:41:24;1.820000;;1.810000;1.720000;;;;;;
43196;SPS30;28816;49.852;18.282;2023-07-31T07:46:26;8.190000;;5.760000;2.990000;;;;;;
43196;SPS30;28816;49.852;18.282;2023-07-31T07:51:29;2.580000;;2.200000;1.640000;;;;;;
43196;SPS30;28816;49.852;18.282;2023-07-31T07:56:31;1.940000;;1.870000;1.740000;;;;;;
43196;SPS30;28816;49.852;18.282;2023-07-31T08:01:33;1.740000;;1.700000;1.650000;;;;;;
43196;SPS30;28816;49.852;18.282;2023-07-31T08:06:35;1.260000;;1.220000;1.210000;;;;;;
43196;SPS30;28816;49.852;18.282;2023-07-31T08:11:37;2.390000;;2.240000;2.080000;;;;;;
43196;SPS30;28816;49.852;18.282;2023-07-31T08:16:39;1.330000;;1.290000;1.170000;;;;;;
43196;SPS30;28816;49.852;18.282;2023-07-31T08:21:42;1.850000;;1.830000;1.700000;;;;;;
43196;SPS30;28816;49.852;18.282;2023-07-31T08:26:44;1.900000;;1.910000;1.800000;;;;;;
43196;SPS30;28816;49.852;18.282;2023-07-31T08:31:46;1.590000;;1.570000;1.520000;;;;;;
43196;SPS30;28816;49.852;18.282;2023-07-31T08:36:49;1.810000;;1.840000;1.690000;;;;;;
43196;SPS30;28816;49.852;18.282;2023-07-31T08:41:51;1.620000;;1.590000;1.560000;;;;;;
43196;SPS30;28816;49.852;18.282;2023-07-31T08:46:57;1.360000;;1.390000;1.270000;;;;;;
43196;SPS30;28816;49.852;18.282;2023-07-31T08:51:59;1.880000;;1.850000;1.800000;;;;;;
43196;SPS30;28816;49.852;18.282;2023-07-31T08:57:02;1.300000;;1.290000;1.240000;;;;;;
43196;SPS30;28816;49.852;18.282;2023-07-31T09:02:05;1.620000;;1.640000;1.520000;;;;;;
43196;SPS30;28816;49.852;18.282;2023-07-31T09:07:08;1.680000;;1.690000;1.560000;;;;;;
43196;SPS30;28816;49.852;18.282;2023-07-31T09:12:11;1.110000;;1.100000;1.060000;;;;;;
43196;SPS30;28816;49.852;18.282;2023-07-31T09:17:13;1.010000;;1.010000;0.950000;;;;;;
43196;SPS30;28816;49.852;18.282;2023-07-31T09:22:28;1.480000;;1.490000;1.370000;;;;;;
43196;SPS30;28816;49.852;18.282;2023-07-31T09:27:32;1.030000;;1.040000;1.000000;;;;;;
43196;SPS30;28816;49.852;18.282;2023-07-31T09:32:46;1.560000;;1.560000;1.480000;;;;;;
43196;SPS30;28816;49.852;18.282;2023-07-31T09:37:48;3.240000;;2.730000;2.070000;;;;;;
43196;SPS30;28816;49.852;18.282;2023-07-31T09:42:51;1.460000;;1.300000;1.140000;;;;;;
43196;SPS30;28816;49.852;18.282;2023-07-31T09:47:53;1.480000;;1.460000;1.230000;;;;;;
43196;SPS30;28816;49.852;18.282;2023-07-31T09:52:56;1.230000;;1.200000;1.110000;;;;;;
43196;SPS30;28816;49.852;18.282;2023-07-31T09:57:58;1.320000;;1.310000;1.200000;;;;;;
43196;SPS30;28816;49.852;18.282;2023-07-31T10:03:03;1.250000;;1.260000;1.190000;;;;;;
43196;SPS30;28816;49.852;18.282;2023-07-31T10:08:06;1.440000;;1.420000;1.380000;;;;;;
43196;SPS30;28816;49.852;18.282;2023-07-31T10:13:09;1.240000;;1.210000;1.200000;;;;;;
43196;SPS30;28816;49.852;18.282;2023-07-31T10:18:12;3.500000;;3.090000;2.310000;;;;;;
43196;SPS30;28816;49.852;18.282;2023-07-31T10:23:14;1.270000;;1.160000;1.080000;;;;;;
43196;SPS30;28816;49.852;18.282;2023-07-31T10:28:17;1.530000;;1.440000;1.330000;;;;;;
43196;SPS30;28816;49.852;18.282;2023-07-31T10:33:20;2.300000;;1.980000;1.580000;;;;;;
43196;SPS30;28816;49.852;18.282;2023-07-31T10:38:22;1.970000;;1.770000;1.400000;;;;;;
43196;SPS30;28816;49.852;18.282;2023-07-31T10:43:25;1.500000;;1.380000;1.190000;;;;;;
43196;SPS30;28816;49.852;18.282;2023-07-31T10:48:27;1.550000;;1.490000;1.330000;;;;;;
43196;SPS30;28816;49.852;18.282;2023-07-31T10:53:33;1.300000;;1.280000;1.240000;;;;;;
43196;SPS30;28816;49.852;18.282;2023-07-31T10:58:35;1.900000;;1.920000;1.800000;;;;;;
43196;SPS30;28816;49.852;18.282;2023-07-31T11:03:38;1.050000;;1.050000;0.950000;;;;;;
43196;SPS30;28816;49.852;18.282;2023-07-31T11:08:41;1.270000;;1.280000;1.180000;;;;;;
43196;SPS30;28816;49.852;18.282;2023-07-31T11:13:44;1.310000;;1.290000;1.250000;;;;;;
43196;SPS30;28816;49.852;18.282;2023-07-31T11:18:47;1.530000;;1.530000;1.450000;;;;;;
43196;SPS30;28816;49.852;18.282;2023-07-31T11:23:50;1.110000;;1.100000;1.060000;;;;;;
43196;SPS30;28816;49.852;18.282;2023-07-31T11:28:53;1.020000;;1.020000;0.970000;;;;;;
43196;SPS30;28816;49.852;18.282;2023-07-31T11:33:55;1.340000;;1.320000;1.220000;;;;;;
43196;SPS30;28816;49.852;18.282;2023-07-31T11:39:04;1.210000;;1.190000;1.160000;;;;;;
43196;SPS30;28816;49.852;18.282;2023-07-31T11:44:07;1.080000;;1.100000;1.000000;;;;;;
43196;SPS30;28816;49.852;18.282;2023-07-31T11:49:10;1.140000;;1.150000;1.050000;;;;;;
43196;SPS30;28816;49.852;18.282;2023-07-31T11:54:11;1.190000;;1.170000;1.100000;;;;;;
43196;SPS30;28816;49.852;18.282;2023-07-31T11:59:14;1.180000;;1.160000;1.090000;;;;;;
43196;SPS30;28816;49.852;18.282;2023-07-31T12:04:16;1.320000;;1.320000;1.220000;;;;;;
43196;SPS30;28816;49.852;18.282;2023-07-31T12:09:19;0.700000;;0.680000;0.660000;;;;;;
43196;SPS30;28816;49.852;18.282;2023-07-31T12:14:22;1.300000;;1.320000;1.200000;;;;;;
43196;SPS30;28816;49.852;18.282;2023-07-31T12:19:24;0.730000;;0.740000;0.700000;;;;;;
43196;SPS30;28816;49.852;18.282;2023-07-31T12:24:26;1.120000;;1.090000;1.040000;;;;;;
43196;SPS30;28816;49.852;18.282;2023-07-31T12:29:28;0.730000;;0.730000;0.660000;;;;;;
43196;SPS30;28816;49.852;18.282;2023-07-31T12:34:33;0.920000;;0.880000;0.830000;;;;;;
43196;SPS30;28816;49.852;18.282;2023-07-31T12:39:42;1.350000;;1.220000;1.050000;;;;;;
43196;SPS30;28816;49.852;18.282;2023-07-31T12:44:45;1.280000;;1.120000;0.950000;;;;;;
43196;SPS30;28816;49.852;18.282;2023-07-31T12:49:47;1.080000;;0.960000;0.830000;;;;;;
43196;SPS30;28816;49.852;18.282;2023-07-31T12:54:49;0.970000;;0.900000;0.790000;;;;;;
43196;SPS30;28816;49.852;18.282;2023-07-31T12:59:51;0.910000;;0.830000;0.800000;;;;;;
43196;SPS30;28816;49.852;18.282;2023-07-31T13:04:53;0.720000;;0.670000;0.620000;;;;;;
43196;SPS30;28816;49.852;18.282;2023-07-31T13:09:56;0.970000;;0.910000;0.860000;;;;;;
43196;SPS30;28816;49.852;18.282;2023-07-31T13:14:58;1.210000;;1.200000;1.070000;;;;;;
43196;SPS30;28816;49.852;18.282;2023-07-31T13:20:00;1.000000;;0.980000;0.890000;;;;;;
43196;SPS30;28816;49.852;18.282;2023-07-31T13:25:02;1.030000;;1.010000;0.990000;;;;;;
43196;SPS30;28816;49.852;18.282;2023-07-31T13:30:05;1.130000;;1.120000;1.060000;;;;;;
43196;SPS30;28816;49.852;18.282;2023-07-31T13:35:07;1.390000;;1.390000;1.300000;;;;;;
43196;SPS30;28816;49.852;18.282;2023-07-31T13:40:10;1.180000;;1.230000;1.080000;;;;;;
43196;SPS30;28816;49.852;18.282;2023-07-31T13:45:11;1.300000;;1.290000;1.200000;;;;;;
43196;SPS30;28816;49.852;18.282;2023-07-31T13:50:14;1.270000;;1.230000;1.190000;;;;;;
43196;SPS30;28816;49.852;18.282;2023-07-31T13:55:17;0.930000;;0.920000;0.860000;;;;;;
43196;SPS30;28816;49.852;18.282;2023-07-31T14:00:19;1.890000;;1.870000;1.820000;;;;;;
43196;SPS30;28816;49.852;18.282;2023-07-31T14:05:21;1.290000;;1.300000;1.210000;;;;;;
43196;SPS30;28816;49.852;18.282;2023-07-31T14:10:23;1.360000;;1.340000;1.260000;;;;;;
43196;SPS30;28816;49.852;18.282;2023-07-31T14:15:25;1.280000;;1.220000;1.160000;;;;;;
43196;SPS30;28816;49.852;18.282;2023-07-31T14:20:27;0.980000;;0.930000;0.900000;;;;;;
43196;SPS30;28816;49.852;18.282;2023-07-31T14:25:30;1.200000;;1.200000;1.090000;;;;;;
43196;SPS30;28816;49.852;18.282;2023-07-31T14:30:33;1.100000;;1.080000;1.000000;;;;;;
43196;SPS30;28816;49.852;18.282;2023-07-31T14:35:35;1.100000;;1.070000;1.010000;;;;;;
43196;SPS30;28816;49.852;18.282;2023-07-31T14:40:37;1.120000;;1.090000;1.040000;;;;;;
43196;SPS30;28816;49.852;18.282;2023-07-31T14:45:39;1.240000;;1.220000;1.190000;;;;;;
43196;SPS30;28816;49.852;18.282;2023-07-31T14:50:42;0.980000;;0.970000;0.920000;;;;;;
43196;SPS30;28816;49.852;18.282;2023-07-31T14:55:44;1.250000;;1.210000;1.120000;;;;;;
43196;SPS30;28816;49.852;18.282;2023-07-31T15:00:45;1.080000;;1.100000;0.990000;;;;;;
43196;SPS30;28816;49.852;18.282;2023-07-31T15:05:47;1.440000;;1.460000;1.350000;;;;;;
43196;SPS30;28816;49.852;18.282;2023-07-31T15:10:49;1.770000;;1.710000;1.650000;;;;;;
43196;SPS30;28816;49.852;18.282;2023-07-31T15:15:51;1.190000;;1.200000;1.120000;;;;;;
43196;SPS30;28816;49.852;18.282;2023-07-31T15:20:55;1.230000;;1.200000;1.140000;;;;;;
43196;SPS30;28816;49.852;18.282;2023-07-31T15:25:56;1.260000;;1.220000;1.140000;;;;;;
43196;SPS30;28816;49.852;18.282;2023-07-31T15:30:59;1.190000;;1.130000;1.080000;;;;;;
43196;SPS30;28816;49.852;18.282;2023-07-31T15:36:01;1.350000;;1.360000;1.210000;;;;;;
43196;SPS30;28816;49.852;18.282;2023-07-31T15:41:03;1.220000;;1.220000;1.130000;;;;;;
43196;SPS30;28816;49.852;18.282;2023-07-31T15:46:06;0.990000;;0.970000;0.950000;;;;;;
43196;SPS30;28816;49.852;18.282;2023-07-31T15:51:07;1.520000;;1.480000;1.460000;;;;;;
43196;SPS30;28816;49.852;18.282;2023-07-31T15:56:09;1.210000;;1.200000;1.150000;;;;;;
43196;SPS30;28816;49.852;18.282;2023-07-31T16:01:12;1.360000;;1.370000;1.260000;;;;;;
43196;SPS30;28816;49.852;18.282;2023-07-31T16:06:15;1.320000;;1.290000;1.240000;;;;;;
43196;SPS30;28816;49.852;18.282;2023-07-31T16:11:17;1.270000;;1.250000;1.140000;;;;;;
43196;SPS30;28816;49.852;18.282;2023-07-31T16:16:19;1.210000;;1.220000;1.130000;;;;;;
43196;SPS30;28816;49.852;18.282;2023-07-31T16:21:21;1.280000;;1.270000;1.180000;;;;;;
43196;SPS30;28816;49.852;18.282;2023-07-31T16:26:23;0.960000;;0.940000;0.910000;;;;;;
43196;SPS30;28816;49.852;18.282;2023-07-31T16:31:24;1.750000;;1.710000;1.600000;;;;;;
43196;SPS30;28816;49.852;18.282;2023-07-31T16:36:26;1.340000;;1.300000;1.220000;;;;;;
43196;SPS30;28816;49.852;18.282;2023-07-31T16:41:28;1.290000;;1.240000;1.180000;;;;;;
43196;SPS30;28816;49.852;18.282;2023-07-31T16:46:30;1.230000;;1.200000;1.100000;;;;;;
43196;SPS30;28816;49.852;18.282;2023-07-31T16:51:32;1.370000;;1.300000;1.300000;;;;;;
43196;SPS30;28816;49.852;18.282;2023-07-31T16:56:34;1.400000;;1.360000;1.270000;;;;;;
43196;SPS30;28816;49.852;18.282;2023-07-31T17:01:36;1.070000;;1.020000;0.990000;;;;;;
43196;SPS30;28816;49.852;18.282;2023-07-31T17:06:38;1.350000;;1.320000;1.290000;;;;;;
43196;SPS30;28816;49.852;18.282;2023-07-31T17:11:40;1.600000;;1.540000;1.470000;;;;;;
43196;SPS30;28816;49.852;18.282;2023-07-31T17:16:41;1.420000;;1.370000;1.290000;;;;;;
43196;SPS30;28816;49.852;18.282;2023-07-31T17:21:44;1.040000;;1.030000;0.940000;;;;;;
43196;SPS30;28816;49.852;18.282;2023-07-31T17:26:46;1.150000;;1.100000;1.060000;;;;;;
43196;SPS30;28816;49.852;18.282;2023-07-31T17:31:48;0.960000;;0.960000;0.870000;;;;;;
43196;SPS30;28816;49.852;18.282;2023-07-31T17:36:50;1.250000;;1.220000;1.180000;;;;;;
43196;SPS30;28816;49.852;18.282;2023-07-31T17:41:51;1.260000;;1.260000;1.170000;;;;;;
43196;SPS30;28816;49.852;18.282;2023-07-31T17:46:54;1.670000;;1.620000;1.550000;;;;;;
43196;SPS30;28816;49.852;18.282;2023-07-31T17:51:56;1.180000;;1.120000;1.070000;;;;;;
43196;SPS30;28816;49.852;18.282;2023-07-31T17:56:57;1.550000;;1.510000;1.490000;;;;;;
43196;SPS30;28816;49.852;18.282;2023-07-31T18:01:59;1.400000;;1.390000;1.320000;;;;;;
43196;SPS30;28816;49.852;18.282;2023-07-31T18:07:01;1.190000;;1.170000;1.070000;;;;;;
43196;SPS30;28816;49.852;18.282;2023-07-31T18:12:03;2.160000;;2.070000;2.000000;;;;;;
43196;SPS30;28816;49.852;18.282;2023-07-31T18:17:06;1.550000;;1.520000;1.440000;;;;;;
43196;SPS30;28816;49.852;18.282;2023-07-31T18:22:08;1.470000;;1.460000;1.330000;;;;;;
43196;SPS30;28816;49.852;18.282;2023-07-31T18:27:10;1.440000;;1.450000;1.330000;;;;;;
43196;SPS30;28816;49.852;18.282;2023-07-31T18:32:12;1.910000;;1.900000;1.740000;;;;;;
43196;SPS30;28816;49.852;18.282;2023-07-31T18:37:14;1.860000;;1.840000;1.670000;;;;;;
43196;SPS30;28816;49.852;18.282;2023-07-31T18:42:17;1.420000;;1.390000;1.340000;;;;;;
43196;SPS30;28816;49.852;18.282;2023-07-31T18:47:18;1.710000;;1.660000;1.600000;;;;;;
43196;SPS30;28816;49.852;18.282;2023-07-31T18:52:20;2.400000;;2.360000;2.210000;;;;;;
43196;SPS30;28816;49.852;18.282;2023-07-31T18:57:23;1.950000;;1.890000;1.830000;;;;;;
43196;SPS30;28816;49.852;18.282;2023-07-31T19:02:25;2.330000;;2.320000;2.080000;;;;;;
43196;SPS30;28816;49.852;18.282;2023-07-31T19:07:27;1.820000;;1.800000;1.620000;;;;;;
43196;SPS30;28816;49.852;18.282;2023-07-31T19:12:29;2.100000;;2.020000;1.930000;;;;;;
43196;SPS30;28816;49.852;18.282;2023-07-31T19:17:31;2.070000;;1.980000;1.860000;;;;;;
43196;SPS30;28816;49.852;18.282;2023-07-31T19:22:33;2.290000;;2.240000;2.070000;;;;;;
43196;SPS30;28816;49.852;18.282;2023-07-31T19:27:34;2.990000;;2.930000;2.690000;;;;;;
43196;SPS30;28816;49.852;18.282;2023-07-31T19:32:36;2.050000;;2.020000;1.840000;;;;;;
43196;SPS30;28816;49.852;18.282;2023-07-31T19:37:39;2.020000;;1.980000;1.850000;;;;;;
43196;SPS30;28816;49.852;18.282;2023-07-31T19:42:41;1.830000;;1.800000;1.690000;;;;;;
43196;SPS30;28816;49.852;18.282;2023-07-31T19:47:43;2.230000;;2.200000;2.060000;;;;;;
43196;SPS30;28816;49.852;18.282;2023-07-31T19:52:44;2.210000;;2.180000;2.050000;;;;;;
43196;SPS30;28816;49.852;18.282;2023-07-31T19:57:46;3.040000;;3.020000;2.750000;;;;;;
43196;SPS30;28816;49.852;18.282;2023-07-31T20:02:48;2.880000;;2.800000;2.590000;;;;;;
43196;SPS30;28816;49.852;18.282;2023-07-31T20:07:50;2.710000;;2.640000;2.420000;;;;;;
43196;SPS30;28816;49.852;18.282;2023-07-31T20:12:52;2.680000;;2.650000;2.380000;;;;;;
43196;SPS30;28816;49.852;18.282;2023-07-31T20:17:53;3.270000;;3.150000;2.970000;;;;;;
43196;SPS30;28816;49.852;18.282;2023-07-31T20:22:55;4.010000;;3.950000;3.590000;;;;;;
43196;SPS30;28816;49.852;18.282;2023-07-31T20:27:57;3.980000;;3.840000;3.480000;;;;;;
43196;SPS30;28816;49.852;18.282;2023-07-31T20:33:00;3.810000;;3.720000;3.430000;;;;;;
43196;SPS30;28816;49.852;18.282;2023-07-31T20:38:03;4.270000;;4.140000;3.880000;;;;;;
43196;SPS30;28816;49.852;18.282;2023-07-31T20:43:06;4.070000;;3.900000;3.680000;;;;;;
43196;SPS30;28816;49.852;18.282;2023-07-31T20:48:08;4.410000;;4.440000;3.950000;;;;;;
43196;SPS30;28816;49.852;18.282;2023-07-31T20:53:10;4.020000;;3.880000;3.690000;;;;;;
43196;SPS30;28816;49.852;18.282;2023-07-31T20:58:12;4.130000;;4.030000;3.820000;;;;;;
43196;SPS30;28816;49.852;18.282;2023-07-31T21:03:14;5.410000;;5.210000;4.890000;;;;;;
43196;SPS30;28816;49.852;18.282;2023-07-31T21:08:16;5.210000;;5.140000;4.830000;;;;;;
43196;SPS30;28816;49.852;18.282;2023-07-31T21:13:18;5.580000;;5.420000;5.120000;;;;;;
43196;SPS30;28816;49.852;18.282;2023-07-31T21:18:20;6.280000;;6.180000;5.780000;;;;;;
43196;SPS30;28816;49.852;18.282;2023-07-31T21:23:21;5.210000;;5.090000;4.690000;;;;;;
43196;SPS30;28816;49.852;18.282;2023-07-31T21:28:24;4.680000;;4.580000;4.160000;;;;;;
43196;SPS30;28816;49.852;18.282;2023-07-31T21:33:27;3.910000;;3.850000;3.560000;;;;;;
43196;SPS30;28816;49.852;18.282;2023-07-31T21:38:30;4.170000;;4.130000;3.710000;;;;;;
43196;SPS30;28816;49.852;18.282;2023-07-31T21:43:32;3.530000;;3.530000;3.250000;;;;;;
43196;SPS30;28816;49.852;18.282;2023-07-31T21:48:35;3.700000;;3.590000;3.340000;;;;;;
43196;SPS30;28816;49.852;18.282;2023-07-31T21:53:37;3.790000;;3.720000;3.470000;;;;;;
43196;SPS30;28816;49.852;18.282;2023-07-31T21:58:39;2.910000;;2.850000;2.690000;;;;;;
43196;SPS30;28816;49.852;18.282;2023-07-31T22:03:41;3.390000;;3.310000;3.180000;;;;;;
43196;SPS30;28816;49.852;18.282;2023-07-31T22:08:42;3.420000;;3.410000;3.230000;;;;;;
43196;SPS30;28816;49.852;18.282;2023-07-31T22:13:44;3.480000;;3.500000;3.270000;;;;;;
43196;SPS30;28816;49.852;18.282;2023-07-31T22:18:46;3.150000;;3.160000;2.970000;;;;;;
43196;SPS30;28816;49.852;18.282;2023-07-31T22:23:48;3.600000;;3.540000;3.380000;;;;;;
43196;SPS30;28816;49.852;18.282;2023-07-31T22:28:50;3.120000;;3.110000;2.940000;;;;;;
43196;SPS30;28816;49.852;18.282;2023-07-31T22:33:52;3.630000;;3.580000;3.480000;;;;;;
43196;SPS30;28816;49.852;18.282;2023-07-31T22:38:53;3.390000;;3.360000;3.210000;;;;;;
43196;SPS30;28816;49.852;18.282;2023-07-31T22:43:55;2.870000;;2.840000;2.720000;;;;;;
43196;SPS30;28816;49.852;18.282;2023-07-31T22:48:57;3.820000;;3.850000;3.580000;;;;;;
43196;SPS30;28816;49.852;18.282;2023-07-31T22:53:59;3.510000;;3.460000;3.360000;;;;;;
43196;SPS30;28816;49.852;18.282;2023-07-31T22:59:01;3.860000;;3.830000;3.540000;;;;;;
43196;SPS30;28816;49.852;18.282;2023-07-31T23:04:03;3.220000;;3.280000;3.010000;;;;;;
43196;SPS30;28816;49.852;18.282;2023-07-31T23:09:04;3.410000;;3.390000;3.220000;;;;;;
43196;SPS30;28816;49.852;18.282;2023-07-31T23:14:06;3.440000;;3.420000;3.200000;;;;;;
43196;SPS30;28816;49.852;18.282;2023-07-31T23:19:08;4.210000;;4.150000;3.840000;;;;;;